Time;durP1;ratioP1;P1;durP2;ratioP2;P2;SDS_P1;SDS_P2;PMS_P1;PMS_P2;Temp;Humidity;BMP_temperature;BMP_pressure;BME280_temperature;BME280_humidity;BME280_pressure;Samples;Min_cycle;Max_cycle;Signal;HPM_P1;HPM_P2
2022/10/21 00:00:04;;;;;;;37.22;19.90;;;12.40;99.90;;;;;;5070368;28;20515;-70
2022/10/21 00:02:30;;;;;;;36.20;22.73;;;12.40;99.90;;;;;;5068829;28;20460;-71
2022/10/21 00:04:55;;;;;;;33.70;20.65;;;12.40;99.90;;;;;;5067999;28;20052;-71
2022/10/21 00:07:21;;;;;;;36.40;20.95;;;12.40;99.90;;;;;;5071780;28;20044;-71
2022/10/21 00:09:47;;;;;;;35.03;20.40;;;12.40;99.90;;;;;;5069883;28;20267;-71
2022/10/21 00:12:12;;;;;;;35.90;21.25;;;12.40;99.90;;;;;;5068008;28;20522;-71
2022/10/21 00:14:38;;;;;;;39.35;21.40;;;12.30;99.90;;;;;;5069785;28;20101;-71
2022/10/21 00:17:04;;;;;;;29.05;20.58;;;12.30;99.90;;;;;;5071059;28;20079;-71
2022/10/21 00:19:29;;;;;;;34.22;21.50;;;12.30;99.90;;;;;;5063921;28;20504;-71
2022/10/21 00:21:55;;;;;;;38.95;21.02;;;12.40;99.90;;;;;;5069570;28;20041;-71
2022/10/21 00:24:21;;;;;;;34.70;20.67;;;12.30;99.90;;;;;;5071079;28;20036;-71
2022/10/21 00:26:48;;;;;;;38.90;21.67;;;12.30;99.90;;;;;;5069019;28;20036;-69
2022/10/21 00:29:14;;;;;;;29.95;20.20;;;12.30;99.90;;;;;;5070585;28;20421;-70
2022/10/21 00:31:40;;;;;;;35.28;21.63;;;12.30;99.90;;;;;;5071098;28;20040;-70
2022/10/21 00:34:06;;;;;;;32.55;20.02;;;12.30;99.90;;;;;;5070748;28;20044;-71
2022/10/21 00:36:31;;;;;;;34.13;20.83;;;12.30;99.90;;;;;;5070396;28;20434;-71
2022/10/21 00:38:57;;;;;;;32.65;19.98;;;12.60;99.90;;;;;;5066086;28;20063;-71
2022/10/21 00:41:23;;;;;;;33.90;20.15;;;12.30;99.90;;;;;;5050746;28;20124;-71
2022/10/21 00:44:00;;;;;;;37.83;21.23;;;12.30;99.90;;;;;;5053187;28;20045;-71
2022/10/21 00:46:56;;;;;;;36.28;21.10;;;12.40;99.90;;;;;;5064228;28;20033;-71
2022/10/21 00:49:45;;;;;;;30.95;21.33;;;12.30;99.90;;;;;;5060295;28;20045;-71
2022/10/21 00:52:21;;;;;;;32.35;20.95;;;12.30;99.90;;;;;;5067849;28;20045;-72
2022/10/21 00:54:48;;;;;;;35.83;22.00;;;12.30;99.90;;;;;;5058450;28;20041;-71
2022/10/21 00:57:15;;;;;;;34.53;20.70;;;12.30;99.90;;;;;;5063519;28;20413;-71
2022/10/21 00:59:46;;;;;;;34.38;20.80;;;12.30;99.90;;;;;;5067273;28;20051;-71
2022/10/21 01:02:13;;;;;;;37.45;21.10;;;12.60;99.90;;;;;;5067236;28;20064;-71
2022/10/21 01:04:38;;;;;;;37.47;20.90;;;12.30;99.90;;;;;;5069283;28;20091;-69
2022/10/21 01:07:04;;;;;;;34.08;20.38;;;12.30;99.90;;;;;;5070379;28;20080;-69
2022/10/21 01:09:31;;;;;;;33.50;21.05;;;12.40;99.90;;;;;;5048077;28;20398;-69
2022/10/21 01:11:57;;;;;;;33.28;20.33;;;12.30;99.90;;;;;;5068519;28;20052;-70
2022/10/21 01:14:38;;;;;;;35.15;20.38;;;12.40;99.90;;;;;;5048154;28;20474;-69
2022/10/21 01:17:15;;;;;;;36.40;21.90;;;12.30;99.90;;;;;;5040488;28;20033;-70
2022/10/21 01:20:28;;;;;;;33.47;20.45;;;12.30;99.90;;;;;;5068050;28;20130;-70
2022/10/21 01:23:08;;;;;;;33.42;19.83;;;12.30;99.90;;;;;;5042023;28;20379;-70
2022/10/21 01:25:48;;;;;;;33.25;21.50;;;12.30;99.90;;;;;;5049305;28;20037;-70
2022/10/21 01:28:34;;;;;;;36.10;20.47;;;12.30;99.90;;;;;;5032997;28;20051;-69
2022/10/21 01:31:12;;;;;;;31.65;19.73;;;12.30;99.90;;;;;;5052414;28;20052;-70
2022/10/21 01:33:49;;;;;;;37.45;20.17;;;12.30;99.90;;;;;;5068727;28;20138;-70
2022/10/21 01:36:29;;;;;;;34.75;22.00;;;12.30;99.90;;;;;;5066499;28;20398;-71
2022/10/21 01:38:55;;;;;;;33.95;21.55;;;12.30;99.90;;;;;;5054685;28;20052;-71
2022/10/21 01:41:27;;;;;;;37.28;20.52;;;12.30;99.90;;;;;;5080688;28;20045;-71
2022/10/21 01:44:27;;;;;;;32.42;20.05;;;12.30;99.90;;;;;;5048930;28;20048;-69
2022/10/21 01:47:11;;;;;;;37.97;22.27;;;12.20;99.90;;;;;;5031072;28;20084;-70
2022/10/21 01:49:39;;;;;;;36.05;20.83;;;12.20;99.90;;;;;;5066844;28;20106;-70
2022/10/21 01:52:07;;;;;;;33.63;21.08;;;12.20;99.90;;;;;;5068455;28;20113;-70
2022/10/21 01:54:43;;;;;;;37.17;21.13;;;12.30;99.90;;;;;;5066693;28;20454;-71
2022/10/21 01:57:14;;;;;;;36.58;22.02;;;12.30;99.90;;;;;;5065092;28;20051;-70
2022/10/21 01:59:43;;;;;;;31.08;20.35;;;12.30;99.90;;;;;;5064851;28;20036;-70
2022/10/21 02:02:10;;;;;;;35.25;21.92;;;12.30;99.90;;;;;;5067252;28;20119;-70
2022/10/21 02:04:40;;;;;;;30.42;20.23;;;12.30;99.90;;;;;;5065345;28;20041;-70
2022/10/21 02:07:05;;;;;;;30.77;19.77;;;12.30;99.90;;;;;;5066233;28;20102;-70
2022/10/21 02:09:31;;;;;;;32.78;20.83;;;12.30;99.90;;;;;;5066955;28;20428;-70
2022/10/21 02:12:00;;;;;;;30.25;19.92;;;12.30;99.90;;;;;;5067180;28;20090;-69
2022/10/21 02:14:31;;;;;;;33.47;19.67;;;12.30;99.90;;;;;;5067199;28;20048;-71
2022/10/21 02:16:59;;;;;;;35.95;21.25;;;12.30;99.90;;;;;;5050083;28;20041;-71
2022/10/21 02:19:25;;;;;;;36.58;20.92;;;12.30;99.90;;;;;;5066269;28;20123;-69
2022/10/21 02:21:53;;;;;;;33.47;20.02;;;12.50;99.90;;;;;;5055180;28;20041;-70
2022/10/21 02:24:35;;;;;;;32.10;20.77;;;12.30;99.90;;;;;;5063514;28;20044;-70
2022/10/21 02:27:00;;;;;;;;;;;12.30;99.90;;;;;;5064338;28;20055;-70
2022/10/21 02:29:33;;;;;;;31.40;20.17;;;12.30;99.90;;;;;;5066150;28;19920;-70
2022/10/21 02:32:13;;;;;;;33.80;21.92;;;12.30;99.90;;;;;;5048446;28;20052;-70
2022/10/21 02:35:17;;;;;;;33.80;20.60;;;12.40;99.90;;;;;;5029936;28;20045;-70
2022/10/21 02:37:57;;;;;;;32.58;21.13;;;12.40;99.90;;;;;;5079556;28;20052;-70
2022/10/21 02:40:41;;;;;;;38.07;21.70;;;12.40;99.90;;;;;;5066179;28;20393;-70
2022/10/21 02:43:17;;;;;;;36.45;19.88;;;12.40;99.90;;;;;;5066630;28;20860;-70
2022/10/21 02:45:46;;;;;;;36.28;19.88;;;12.50;99.90;;;;;;5067212;28;20379;-70
2022/10/21 02:48:12;;;;;;;31.63;18.48;;;12.50;99.90;;;;;;5066418;28;20079;-70
2022/10/21 02:50:38;;;;;;;26.77;17.65;;;12.50;99.90;;;;;;5066759;28;20086;-70
2022/10/21 02:53:03;;;;;;;28.17;17.83;;;12.80;99.90;;;;;;5065803;28;20044;-70
2022/10/21 02:55:29;;;;;;;35.72;19.02;;;12.50;99.90;;;;;;5066147;28;20855;-70
2022/10/21 02:57:55;;;;;;;28.85;18.05;;;12.50;99.90;;;;;;5068032;28;20040;-70
2022/10/21 03:00:21;;;;;;;29.40;18.25;;;12.60;99.90;;;;;;5049977;28;20110;-70
2022/10/21 03:02:47;;;;;;;26.80;15.65;;;12.60;99.90;;;;;;5068087;28;20473;-70
2022/10/21 03:05:13;;;;;;;39.88;16.88;;;12.60;99.90;;;;;;5068274;28;20083;-71
2022/10/21 03:07:40;;;;;;;26.60;16.38;;;12.60;99.90;;;;;;5066046;28;20044;-70
2022/10/21 03:10:06;;;;;;;26.13;16.75;;;12.70;99.90;;;;;;5067898;28;20562;-70
2022/10/21 03:12:31;;;;;;;30.85;16.90;;;12.70;99.90;;;;;;5066364;28;20041;-71
2022/10/21 03:14:57;;;;;;;29.52;16.73;;;12.70;99.90;;;;;;5065367;28;20059;-70
2022/10/21 03:17:23;;;;;;;24.73;15.70;;;12.80;99.90;;;;;;5066418;28;20052;-70
2022/10/21 03:19:49;;;;;;;33.13;17.25;;;12.80;99.90;;;;;;5064899;28;20040;-70
2022/10/21 03:22:14;;;;;;;31.45;17.65;;;12.80;99.90;;;;;;5065707;28;20048;-70
2022/10/21 03:24:40;;;;;;;26.63;17.02;;;12.80;99.90;;;;;;5065715;28;20050;-70
2022/10/21 03:27:05;;;;;;;33.72;18.40;;;12.80;99.90;;;;;;5064238;28;20125;-70
2022/10/21 03:29:31;;;;;;;36.53;19.38;;;12.80;99.90;;;;;;5048057;28;20490;-70
2022/10/21 03:31:57;;;;;;;33.83;18.67;;;12.90;99.90;;;;;;5062784;28;20522;-70
2022/10/21 03:34:22;;;;;;;40.33;21.40;;;12.90;99.90;;;;;;5049372;28;20516;-70
2022/10/21 03:36:48;;;;;;;45.08;20.75;;;12.90;99.90;;;;;;5049121;28;20426;-70
2022/10/21 03:39:14;;;;;;;30.50;20.58;;;12.90;99.90;;;;;;5045950;28;20045;-70
2022/10/21 03:41:39;;;;;;;33.78;19.77;;;12.90;99.90;;;;;;5045948;28;20494;-70
2022/10/21 03:44:05;;;;;;;34.60;18.65;;;12.80;99.90;;;;;;5046578;28;20116;-70
2022/10/21 03:46:31;;;;;;;34.50;19.77;;;12.80;99.90;;;;;;5045189;28;20501;-70
2022/10/21 03:48:57;;;;;;;31.55;19.20;;;12.80;99.90;;;;;;5067379;28;20152;-71
2022/10/21 03:51:22;;;;;;;35.03;20.70;;;12.80;99.90;;;;;;5066047;28;20044;-70
2022/10/21 03:53:48;;;;;;;30.80;19.90;;;12.80;99.90;;;;;;5048860;28;20050;-71
2022/10/21 03:56:14;;;;;;;31.92;19.13;;;12.80;99.90;;;;;;5065304;28;20076;-70
2022/10/21 03:58:40;;;;;;;32.50;19.15;;;12.80;99.90;;;;;;5048571;28;20397;-71
2022/10/21 04:01:10;;;;;;;30.45;19.38;;;12.80;99.90;;;;;;5049407;28;20040;-71
2022/10/21 04:03:36;;;;;;;29.08;19.45;;;12.80;99.90;;;;;;5065983;28;20040;-71
2022/10/21 04:06:02;;;;;;;31.17;19.73;;;12.80;99.90;;;;;;5067400;28;20059;-70
2022/10/21 04:08:27;;;;;;;27.77;18.75;;;12.80;99.90;;;;;;5064750;28;20071;-70
2022/10/21 04:10:56;;;;;;;31.70;19.15;;;12.80;99.90;;;;;;5065483;28;20064;-70
2022/10/21 04:13:22;;;;;;;37.80;20.13;;;12.80;99.90;;;;;;5065613;28;20048;-70
2022/10/21 04:15:47;;;;;;;30.98;19.85;;;12.80;99.90;;;;;;5065335;28;20049;-70
2022/10/21 04:18:13;;;;;;;31.75;20.73;;;12.70;99.90;;;;;;5064126;28;20566;-70
2022/10/21 04:20:39;;;;;;;38.72;20.08;;;12.80;99.90;;;;;;5065407;28;20491;-70
2022/10/21 04:23:05;;;;;;;31.73;19.75;;;12.80;99.90;;;;;;5065907;28;20045;-70
2022/10/21 04:25:30;;;;;;;33.33;19.83;;;13.00;99.90;;;;;;5066576;28;20041;-71
2022/10/21 04:27:56;;;;;;;39.45;18.52;;;12.80;99.90;;;;;;5068662;28;20051;-70
2022/10/21 04:30:22;;;;;;;27.80;18.38;;;12.70;99.90;;;;;;5070464;28;20131;-71
2022/10/21 04:32:49;;;;;;;31.52;19.65;;;12.80;99.90;;;;;;5068469;28;20051;-71
2022/10/21 04:35:16;;;;;;;39.95;20.00;;;12.70;99.90;;;;;;5068960;28;20517;-71
2022/10/21 04:37:43;;;;;;;37.30;19.70;;;12.70;99.90;;;;;;5051959;28;20457;-71
2022/10/21 04:40:12;;;;;;;31.08;20.10;;;12.70;99.90;;;;;;5068593;28;20425;-71
2022/10/21 04:42:38;;;;;;;36.75;21.10;;;12.70;99.90;;;;;;5070439;28;20425;-70
2022/10/21 04:45:04;;;;;;;48.00;20.73;;;12.70;99.90;;;;;;5071552;28;20090;-71
2022/10/21 04:47:29;;;;;;;28.95;19.13;;;12.70;99.90;;;;;;5051945;28;20548;-71
2022/10/21 04:49:55;;;;;;;36.70;20.65;;;12.70;99.90;;;;;;5070248;28;20554;-71
2022/10/21 04:52:21;;;;;;;37.90;20.35;;;12.70;99.90;;;;;;5070165;28;20382;-70
2022/10/21 04:54:47;;;;;;;34.55;20.70;;;12.80;99.90;;;;;;5052039;28;20048;-70
2022/10/21 04:57:13;;;;;;;32.72;20.35;;;12.70;99.90;;;;;;5069855;28;20032;-70
2022/10/21 04:59:38;;;;;;;32.10;19.70;;;12.70;99.90;;;;;;5052185;28;20040;-70
2022/10/21 05:02:04;;;;;;;29.80;20.00;;;12.60;99.90;;;;;;5068189;28;20040;-70
2022/10/21 05:04:30;;;;;;;38.83;20.65;;;12.60;99.90;;;;;;5068678;28;20680;-70
2022/10/21 05:06:55;;;;;;;33.72;21.35;;;12.60;99.90;;;;;;5067510;28;20079;-71
2022/10/21 05:09:24;;;;;;;32.72;20.55;;;12.60;99.90;;;;;;5051720;28;20095;-71
2022/10/21 05:11:50;;;;;;;58.35;21.63;;;12.60;99.90;;;;;;5051864;28;20044;-70
2022/10/21 05:14:15;;;;;;;33.13;21.10;;;12.60;99.90;;;;;;5068878;28;20039;-71
2022/10/21 05:16:41;;;;;;;35.53;22.02;;;12.70;99.90;;;;;;5051164;28;20083;-70
2022/10/21 05:19:07;;;;;;;63.95;21.92;;;12.60;99.90;;;;;;5068593;28;20484;-70
2022/10/21 05:21:32;;;;;;;39.13;22.13;;;12.60;99.90;;;;;;5067543;28;20123;-71
2022/10/21 05:23:58;;;;;;;32.08;20.35;;;12.60;99.90;;;;;;5068153;28;20052;-70
2022/10/21 05:26:24;;;;;;;39.10;21.85;;;12.60;99.90;;;;;;5069349;28;20314;-70
2022/10/21 05:28:50;;;;;;;39.75;21.50;;;12.60;99.90;;;;;;5066173;28;20091;-70
2022/10/21 05:31:15;;;;;;;39.47;23.77;;;12.60;99.90;;;;;;5051606;28;20048;-71
2022/10/21 05:33:41;;;;;;;36.67;22.05;;;12.60;99.90;;;;;;5069111;28;20052;-70
2022/10/21 05:36:07;;;;;;;40.97;21.52;;;12.60;99.90;;;;;;5050489;28;20052;-71
2022/10/21 05:38:34;;;;;;;39.22;21.85;;;12.60;99.90;;;;;;5067246;28;20102;-70
2022/10/21 05:40:59;;;;;;;36.50;22.02;;;12.70;99.90;;;;;;5068414;28;20043;-71
2022/10/21 05:43:26;;;;;;;37.30;22.25;;;12.60;99.90;;;;;;5068393;28;20389;-70
2022/10/21 05:45:52;;;;;;;40.35;23.13;;;12.70;99.90;;;;;;5067804;28;20056;-71
2022/10/21 05:48:18;;;;;;;40.13;22.80;;;12.70;99.90;;;;;;5069316;28;20049;-71
2022/10/21 05:50:45;;;;;;;65.90;23.98;;;12.70;99.90;;;;;;5068227;28;20409;-71
2022/10/21 05:53:12;;;;;;;40.67;23.60;;;12.70;99.90;;;;;;5067911;28;20045;-70
2022/10/21 05:55:37;;;;;;;42.10;22.48;;;12.70;99.90;;;;;;5068104;28;20443;-70
2022/10/21 05:58:03;;;;;;;42.13;23.10;;;12.70;99.90;;;;;;5054954;28;20087;-70
2022/10/21 06:00:29;;;;;;;35.97;22.70;;;12.70;99.90;;;;;;5042001;28;20426;-70
2022/10/21 06:02:54;;;;;;;37.25;22.45;;;12.70;99.90;;;;;;5052837;28;20045;-71
2022/10/21 06:05:20;;;;;;;45.03;24.95;;;12.70;99.90;;;;;;5057984;28;20043;-71
2022/10/21 06:07:47;;;;;;;38.45;22.95;;;12.70;99.90;;;;;;5067918;28;20044;-71
2022/10/21 06:10:12;;;;;;;36.40;23.30;;;12.70;99.90;;;;;;5068013;28;20076;-70
2022/10/21 06:12:38;;;;;;;45.60;24.83;;;12.70;99.90;;;;;;5066897;28;20145;-71
2022/10/21 06:15:04;;;;;;;46.33;25.10;;;12.70;99.90;;;;;;5055655;28;20052;-70
2022/10/21 06:17:30;;;;;;;37.90;23.67;;;12.70;99.90;;;;;;5050876;28;20048;-70
2022/10/21 06:19:56;;;;;;;46.03;23.00;;;12.70;99.90;;;;;;5067739;28;20033;-70
2022/10/21 06:22:24;;;;;;;42.67;24.98;;;12.70;99.90;;;;;;5050138;28;20091;-71
2022/10/21 06:24:50;;;;;;;41.85;25.60;;;12.70;99.90;;;;;;5066043;28;20408;-71
2022/10/21 06:27:16;;;;;;;44.75;25.38;;;12.70;99.90;;;;;;5063032;28;20135;-70
2022/10/21 06:29:41;;;;;;;44.45;26.65;;;12.80;99.90;;;;;;5049481;28;20118;-71
2022/10/21 06:32:07;;;;;;;46.80;26.13;;;12.90;99.90;;;;;;5061449;28;20052;-71
2022/10/21 06:34:33;;;;;;;41.20;24.67;;;12.80;99.90;;;;;;5066223;28;20420;-70
2022/10/21 06:36:59;;;;;;;42.95;25.42;;;12.80;99.90;;;;;;5049529;28;20037;-71
2022/10/21 06:39:24;;;;;;;44.30;26.83;;;12.80;99.90;;;;;;5051169;28;20037;-70
2022/10/21 06:41:50;;;;;;;42.35;25.45;;;12.80;99.90;;;;;;5062551;28;20441;-70
2022/10/21 06:44:16;;;;;;;41.72;26.10;;;12.90;99.90;;;;;;5066707;28;20036;-70
2022/10/21 06:46:41;;;;;;;43.15;26.35;;;12.90;99.90;;;;;;5066696;28;20543;-70
2022/10/21 06:49:07;;;;;;;46.80;27.00;;;12.90;99.90;;;;;;5068192;28;20422;-71
2022/10/21 06:51:33;;;;;;;45.78;26.55;;;12.90;99.90;;;;;;5068063;28;20044;-70
2022/10/21 06:53:58;;;;;;;41.53;24.92;;;12.90;99.90;;;;;;5065252;28;20284;-70
2022/10/21 06:56:25;;;;;;;43.05;24.20;;;12.90;99.90;;;;;;5066285;28;20099;-70
2022/10/21 06:58:52;;;;;;;36.35;24.13;;;12.90;99.90;;;;;;5066565;28;20505;-70
2022/10/21 07:01:23;;;;;;;44.88;24.92;;;12.90;99.90;;;;;;5039867;28;20518;-71
2022/10/21 07:03:49;;;;;;;47.85;26.00;;;12.90;99.90;;;;;;5063404;28;20413;-70
2022/10/21 07:06:15;;;;;;;44.88;26.70;;;13.00;99.90;;;;;;5042918;28;20115;-70
2022/10/21 07:08:42;;;;;;;45.53;24.80;;;13.00;99.90;;;;;;5066220;28;20048;-70
2022/10/21 07:11:10;;;;;;;43.88;24.83;;;13.00;99.90;;;;;;5049554;28;20406;-71
2022/10/21 07:13:36;;;;;;;40.90;24.90;;;13.00;99.90;;;;;;5066255;28;20052;-71
2022/10/21 07:16:13;;;;;;;47.70;24.77;;;13.00;99.90;;;;;;5065373;28;21002;-71
2022/10/21 07:18:39;;;;;;;46.03;24.23;;;13.00;99.90;;;;;;5065708;28;20391;-71
2022/10/21 07:21:09;;;;;;;40.60;23.08;;;13.00;99.90;;;;;;5049434;28;20051;-71
2022/10/21 07:23:35;;;;;;;40.38;23.52;;;13.10;99.90;;;;;;5066217;28;20059;-71
2022/10/21 07:26:03;;;;;;;39.80;23.90;;;13.00;99.90;;;;;;5064621;28;20051;-71
2022/10/21 07:28:29;;;;;;;35.22;22.73;;;13.10;99.90;;;;;;5048272;28;20048;-70
2022/10/21 07:30:55;;;;;;;37.03;22.42;;;13.30;99.90;;;;;;5065857;28;20056;-70
2022/10/21 07:33:20;;;;;;;36.92;22.17;;;13.10;99.90;;;;;;5065537;28;20044;-71
2022/10/21 07:35:46;;;;;;;41.42;23.60;;;13.10;99.90;;;;;;5057916;28;20044;-71
2022/10/21 07:38:11;;;;;;;37.58;22.55;;;13.10;99.90;;;;;;5058423;28;20044;-70
2022/10/21 07:40:39;;;;;;;36.55;21.55;;;13.00;99.90;;;;;;5057832;28;20044;-71
2022/10/21 07:43:05;;;;;;;33.05;21.30;;;13.10;99.90;;;;;;5059832;28;20041;-70
2022/10/21 07:45:30;;;;;;;33.17;20.80;;;13.10;99.90;;;;;;5060384;28;20052;-70
2022/10/21 07:47:56;;;;;;;37.33;23.23;;;13.10;99.90;;;;;;5057703;28;20446;-71
2022/10/21 07:50:22;;;;;;;34.80;21.52;;;13.10;99.90;;;;;;5056442;28;20071;-71
2022/10/21 07:52:48;;;;;;;33.45;21.58;;;13.10;99.90;;;;;;5059874;28;20177;-71
2022/10/21 07:55:16;;;;;;;35.67;21.77;;;13.10;99.90;;;;;;5062004;28;20468;-71
2022/10/21 07:57:43;;;;;;;33.60;22.17;;;13.10;99.90;;;;;;5060593;28;20067;-70
2022/10/21 08:00:12;;;;;;;35.22;21.10;;;13.10;99.90;;;;;;5067494;28;20483;-70
2022/10/21 08:02:38;;;;;;;34.75;21.98;;;13.10;99.90;;;;;;5066874;28;20863;-71
2022/10/21 08:05:05;;;;;;;38.95;21.48;;;13.10;99.90;;;;;;5062435;28;20135;-71
2022/10/21 08:07:31;;;;;;;33.95;21.10;;;13.10;99.90;;;;;;5065223;28;20459;-70
2022/10/21 08:09:58;;;;;;;34.90;21.60;;;13.10;99.90;;;;;;5062411;28;20127;-70
2022/10/21 08:12:24;;;;;;;36.35;21.67;;;13.20;99.90;;;;;;5059945;28;20037;-70
2022/10/21 08:14:50;;;;;;;34.15;20.88;;;13.10;99.90;;;;;;5090976;28;20047;-71
2022/10/21 08:17:16;;;;;;;29.98;20.30;;;13.10;99.90;;;;;;5063893;28;20033;-70
2022/10/21 08:19:42;;;;;;;38.13;21.63;;;13.20;99.90;;;;;;5069497;28;20607;-70
2022/10/21 08:22:07;;;;;;;33.65;21.27;;;13.20;99.90;;;;;;5059259;28;20052;-70
2022/10/21 08:24:34;;;;;;;34.08;20.83;;;13.20;99.90;;;;;;5060215;28;20045;-70
2022/10/21 08:27:00;;;;;;;30.17;18.92;;;13.20;99.90;;;;;;5051496;28;20041;-70
2022/10/21 08:29:26;;;;;;;36.88;21.48;;;13.20;99.90;;;;;;5067332;28;20048;-70
2022/10/21 08:31:52;;;;;;;32.83;19.65;;;13.20;99.90;;;;;;5066827;28;20044;-71
2022/10/21 08:34:17;;;;;;;30.30;19.73;;;13.30;99.90;;;;;;5067908;28;20511;-70
2022/10/21 08:36:43;;;;;;;30.60;19.13;;;13.30;99.90;;;;;;5067857;28;20071;-70
2022/10/21 08:39:09;;;;;;;30.88;20.42;;;13.30;99.90;;;;;;5093355;28;20075;-70
2022/10/21 08:41:47;;;;;;;36.15;21.52;;;13.30;99.90;;;;;;5050361;28;20040;-70
2022/10/21 08:44:35;;;;;;;34.05;21.83;;;13.30;99.90;;;;;;5092840;28;20048;-70
2022/10/21 08:47:12;;;;;;;32.78;20.33;;;13.40;99.90;;;;;;5094610;28;20033;-70
2022/10/21 08:49:50;;;;;;;29.83;19.42;;;13.40;99.90;;;;;;5095549;28;20513;-71
2022/10/21 08:52:22;;;;;;;30.77;20.42;;;13.40;99.90;;;;;;5068723;28;20043;-70
2022/10/21 08:54:58;;;;;;;29.90;19.30;;;13.50;99.90;;;;;;5067117;28;20131;-70
2022/10/21 08:57:25;;;;;;;33.65;20.90;;;13.50;99.90;;;;;;5052623;28;20056;-70
2022/10/21 08:59:50;;;;;;;29.85;20.42;;;13.60;99.90;;;;;;5067711;28;20037;-70
2022/10/21 09:02:34;;;;;;;32.35;20.45;;;13.60;99.90;;;;;;5067820;28;20052;-70
2022/10/21 09:05:26;;;;;;;30.80;19.70;;;13.60;99.90;;;;;;5089372;28;20061;-70
2022/10/21 09:08:30;;;;;;;29.27;18.70;;;13.70;99.90;;;;;;5064336;28;20053;-70
2022/10/21 09:11:04;;;;;;;29.35;19.10;;;13.80;99.90;;;;;;5015369;28;20061;-70
2022/10/21 09:13:53;;;;;;;30.52;19.20;;;13.80;99.90;;;;;;5068032;28;20135;-69
2022/10/21 09:16:28;;;;;;;29.63;18.77;;;13.90;99.90;;;;;;5068808;28;20178;-69
2022/10/21 09:19:02;;;;;;;28.35;18.30;;;14.00;99.90;;;;;;5069000;28;20128;-70
2022/10/21 09:21:36;;;;;;;36.55;18.67;;;14.00;99.90;;;;;;5066644;28;20113;-70
2022/10/21 09:24:21;;;;;;;31.13;19.02;;;14.10;99.90;;;;;;5063304;28;20036;-70
2022/10/21 09:26:49;;;;;;;31.15;18.48;;;14.20;99.90;;;;;;5051378;28;20464;-70
2022/10/21 09:29:30;;;;;;;26.65;16.83;;;14.20;99.90;;;;;;5067669;28;20082;-70
2022/10/21 09:32:22;;;;;;;28.60;19.00;;;14.20;99.90;;;;;;5065083;28;20048;-70
2022/10/21 09:35:12;;;;;;;28.80;16.92;;;14.30;99.90;;;;;;5067283;28;20417;-69
2022/10/21 09:37:51;;;;;;;21.90;15.30;;;14.30;99.90;;;;;;5051934;28;20053;-70
2022/10/21 09:40:23;;;;;;;25.52;16.25;;;14.40;99.90;;;;;;5055929;28;20397;-70
2022/10/21 09:42:54;;;;;;;27.67;16.48;;;14.40;99.90;;;;;;5057152;28;20043;-70
2022/10/21 09:45:42;;;;;;;29.50;16.27;;;14.50;99.90;;;;;;5063447;28;20044;-70
2022/10/21 09:48:27;;;;;;;25.30;15.35;;;14.50;99.90;;;;;;5061188;28;20056;-69
2022/10/21 09:51:03;;;;;;;26.50;15.77;;;14.60;99.90;;;;;;5034276;28;20049;-70
2022/10/21 09:53:38;;;;;;;22.77;14.63;;;14.60;99.90;;;;;;5042502;28;20429;-69
2022/10/21 09:56:32;;;;;;;23.73;15.63;;;14.60;99.90;;;;;;5051321;28;20041;-70
2022/10/21 09:59:12;;;;;;;24.00;15.82;;;14.70;99.90;;;;;;5047434;28;20444;-70
2022/10/21 10:01:41;;;;;;;25.17;15.63;;;14.70;99.90;;;;;;5056181;28;20668;-70
2022/10/21 10:04:30;;;;;;;23.17;14.73;;;14.70;99.90;;;;;;5027466;28;20598;-70
2022/10/21 10:07:01;;;;;;;24.15;15.77;;;14.80;99.90;;;;;;5087586;28;20633;-70
2022/10/21 10:09:32;;;;;;;22.85;14.82;;;14.80;99.90;;;;;;5052708;28;20063;-69
2022/10/21 10:12:04;;;;;;;22.90;14.95;;;14.90;99.90;;;;;;5036977;28;20103;-70
2022/10/21 10:14:37;;;;;;;23.85;15.10;;;14.90;99.90;;;;;;5046575;28;20053;-70
2022/10/21 10:17:27;;;;;;;26.45;15.50;;;14.90;99.90;;;;;;5048571;28;20102;-70
2022/10/21 10:20:18;;;;;;;23.55;14.60;;;15.00;99.90;;;;;;5064023;28;20114;-70
2022/10/21 10:22:59;;;;;;;24.38;13.45;;;15.00;99.90;;;;;;5064377;28;20052;-70
2022/10/21 10:25:30;;;;;;;25.45;14.00;;;15.10;99.90;;;;;;5063609;28;20040;-70
2022/10/21 10:27:58;;;;;;;21.38;13.20;;;15.10;99.90;;;;;;5067933;28;20061;-70
2022/10/21 10:30:40;;;;;;;19.08;12.13;;;15.20;99.90;;;;;;5044866;28;20060;-70
2022/10/21 10:33:19;;;;;;;23.95;12.90;;;15.20;99.90;;;;;;5060427;28;20485;-70
2022/10/21 10:35:54;;;;;;;20.95;11.82;;;15.30;99.90;;;;;;5060655;28;20162;-69
2022/10/21 10:38:35;;;;;;;17.83;11.30;;;15.30;99.90;;;;;;5059812;28;20082;-70
2022/10/21 10:41:13;;;;;;;22.85;10.63;;;15.40;99.90;;;;;;5058453;28;20415;-70
2022/10/21 10:43:53;;;;;;;24.73;11.10;;;15.30;99.90;;;;;;5061559;28;20490;-70
2022/10/21 10:46:35;;;;;;;21.92;11.50;;;15.40;99.90;;;;;;5068954;28;20416;-71
2022/10/21 10:49:12;;;;;;;20.92;10.90;;;15.40;99.90;;;;;;5067971;28;20360;-71
2022/10/21 10:51:41;;;;;;;17.73;11.20;;;15.50;99.90;;;;;;5064939;28;20097;-70
2022/10/21 10:54:17;;;;;;;17.85;10.65;;;15.50;99.90;;;;;;5075374;28;20040;-70
2022/10/21 10:56:55;;;;;;;21.27;11.40;;;15.60;99.90;;;;;;5065217;28;20047;-70
2022/10/21 10:59:40;;;;;;;21.52;9.95;;;15.60;99.90;;;;;;5057693;28;20037;-70
2022/10/21 11:02:09;;;;;;;16.13;9.40;;;15.60;99.90;;;;;;5069859;28;20051;-70
2022/10/21 11:04:45;;;;;;;16.13;8.93;;;15.60;99.90;;;;;;5059272;28;20136;-70
2022/10/21 11:07:38;;;;;;;17.02;8.90;;;15.60;99.90;;;;;;5063653;28;20045;-70
2022/10/21 11:10:12;;;;;;;18.92;9.77;;;15.70;99.90;;;;;;5059695;28;20166;-70
2022/10/21 11:12:37;;;;;;;20.00;9.70;;;15.70;99.90;;;;;;5062195;28;20420;-70
2022/10/21 11:15:12;;;;;;;19.80;9.23;;;15.70;99.90;;;;;;5064606;28;20040;-71
2022/10/21 11:17:42;;;;;;;26.25;10.75;;;15.70;99.90;;;;;;5062512;28;20390;-71
2022/10/21 11:20:26;;;;;;;16.70;8.83;;;15.70;99.90;;;;;;5041432;28;20041;-71
2022/10/21 11:23:35;;;;;;;13.63;8.68;;;15.60;99.90;;;;;;5062757;28;20089;-70
2022/10/21 11:26:11;;;;;;;20.95;9.77;;;15.80;99.90;;;;;;5061747;28;20040;-71
2022/10/21 11:28:46;;;;;;;15.45;8.90;;;15.80;99.90;;;;;;5058600;28;20052;-70
2022/10/21 11:31:19;;;;;;;15.45;8.85;;;15.80;99.90;;;;;;5060526;28;20041;-70
2022/10/21 11:33:54;;;;;;;17.25;8.45;;;15.80;99.90;;;;;;5060292;28;20043;-70
2022/10/21 11:36:39;;;;;;;14.30;8.80;;;15.80;99.90;;;;;;5059027;28;20050;-71
2022/10/21 11:39:35;;;;;;;17.33;8.48;;;15.80;99.90;;;;;;5057568;28;20052;-71
2022/10/21 11:42:23;;;;;;;16.08;8.85;;;15.90;99.90;;;;;;5048814;28;20076;-71
2022/10/21 11:45:10;;;;;;;17.52;9.43;;;15.90;99.90;;;;;;5058251;28;20068;-71
2022/10/21 11:48:03;;;;;;;14.82;8.85;;;15.90;99.90;;;;;;5086723;28;20130;-71
2022/10/21 11:50:29;;;;;;;19.80;9.20;;;15.90;99.90;;;;;;5058323;28;20434;-71
2022/10/21 11:52:57;;;;;;;18.75;9.13;;;16.00;99.90;;;;;;5059265;28;20132;-71
2022/10/21 11:55:51;;;;;;;18.58;9.80;;;15.90;99.90;;;;;;5060533;28;20451;-71
2022/10/21 11:58:30;;;;;;;16.65;9.10;;;16.00;99.90;;;;;;5064570;28;20056;-71
2022/10/21 12:01:05;;;;;;;17.85;9.48;;;16.00;99.90;;;;;;5060236;28;20040;-71
2022/10/21 12:03:56;;;;;;;16.15;8.85;;;16.00;99.90;;;;;;5059377;28;20040;-70
2022/10/21 12:06:28;;;;;;;;;;;16.00;99.90;;;;;;5057562;28;20513;-70
2022/10/21 12:09:18;;;;;;;16.25;8.88;;;16.00;99.90;;;;;;5087491;28;19971;-70
2022/10/21 12:11:54;;;;;;;15.35;9.30;;;16.00;99.90;;;;;;5064280;28;20056;-70
2022/10/21 12:14:33;;;;;;;16.23;9.02;;;16.00;99.90;;;;;;5062255;28;20456;-70
2022/10/21 12:17:10;;;;;;;15.63;8.50;;;16.10;99.90;;;;;;5059390;28;20054;-70
2022/10/21 12:19:36;;;;;;;15.75;8.80;;;16.20;99.90;;;;;;5062048;28;20037;-70
2022/10/21 12:22:03;;;;;;;16.25;8.15;;;16.10;99.90;;;;;;5061600;28;20130;-71
2022/10/21 12:24:50;;;;;;;17.73;8.70;;;16.10;99.90;;;;;;5062821;28;20032;-70
2022/10/21 12:27:19;;;;;;;15.43;7.68;;;16.10;99.90;;;;;;5059509;28;20076;-70
2022/10/21 12:30:11;;;;;;;14.48;8.25;;;16.20;99.90;;;;;;5058853;28;20059;-70
2022/10/21 12:33:11;;;;;;;16.25;7.53;;;16.10;99.90;;;;;;5073399;28;20061;-70
2022/10/21 12:36:10;;;;;;;14.57;8.18;;;16.20;99.90;;;;;;5047976;28;20053;-70
2022/10/21 12:38:48;;;;;;;17.77;8.02;;;16.10;99.90;;;;;;5056160;28;20110;-70
2022/10/21 12:41:23;;;;;;;15.65;8.18;;;16.20;99.90;;;;;;5063518;28;20383;-70
2022/10/21 12:44:01;;;;;;;15.48;7.68;;;16.20;99.90;;;;;;5056619;28;20048;-70
2022/10/21 12:46:33;;;;;;;17.30;7.82;;;16.20;99.90;;;;;;5046577;28;20065;-70
2022/10/21 12:49:05;;;;;;;16.20;7.75;;;16.20;99.90;;;;;;5061877;28;20043;-70